Time;durP1;ratioP1;P1;durP2;ratioP2;P2;SDS_P1;SDS_P2;PMS_P1;PMS_P2;Temp;Humidity;BMP_temperature;BMP_pressure;BME280_temperature;BME280_humidity;BME280_pressure;Samples;Min_cycle;Max_cycle;Signal;HPM_P1;HPM_P2
2023/07/30 00:01:12;;;;;;;1999.90;999.90;;;;;;;19.81;100.00;94693.78;5024302;28;20206;-57
2023/07/30 00:03:37;;;;;;;1999.90;999.90;;;;;;;19.70;100.00;94652.03;5024216;28;20276;-58
2023/07/30 00:06:03;;;;;;;1999.90;999.90;;;;;;;19.60;100.00;94592.47;5024163;28;20202;-58
2023/07/30 00:08:28;;;;;;;1999.90;999.90;;;;;;;19.41;100.00;94538.50;5024267;28;20191;-58
2023/07/30 00:10:57;;;;;;;1999.90;999.90;;;;;;;19.34;100.00;94466.94;5023820;28;20225;-59
2023/07/30 00:13:22;;;;;;;1999.90;999.90;;;;;;;19.30;100.00;94413.72;5024423;28;20199;-58
2023/07/30 00:15:48;;;;;;;1999.90;999.90;;;;;;;19.27;100.00;94387.03;5024110;28;20207;-58
2023/07/30 00:18:14;;;;;;;1999.90;999.90;;;;;;;19.24;100.00;94349.19;5023953;28;20191;-58
2023/07/30 00:20:40;;;;;;;1999.90;999.90;;;;;;;19.19;100.00;94320.19;5023793;28;20277;-58
2023/07/30 00:23:06;;;;;;;1999.90;999.90;;;;;;;19.20;100.00;94312.66;5023844;28;20214;-58
2023/07/30 00:25:31;;;;;;;1999.90;999.90;;;;;;;19.20;100.00;94298.81;5024115;28;20274;-58
2023/07/30 00:27:56;;;;;;;1999.90;999.90;;;;;;;19.21;100.00;94292.78;5028492;28;20217;-58
2023/07/30 00:30:22;;;;;;;1999.90;999.90;;;;;;;19.22;100.00;94296.31;5027878;28;20226;-57
2023/07/30 00:32:47;;;;;;;1999.90;999.90;;;;;;;19.21;100.00;94284.50;5028325;28;20273;-58
2023/07/30 00:35:13;;;;;;;1999.90;999.90;;;;;;;19.21;100.00;94283.72;5027664;28;20218;-58
2023/07/30 00:37:38;;;;;;;1999.90;999.90;;;;;;;19.18;100.00;94273.63;5027341;28;20203;-58
2023/07/30 00:40:04;;;;;;;1999.90;999.90;;;;;;;19.16;100.00;94274.09;5027726;28;20271;-59
2023/07/30 00:42:29;;;;;;;1999.90;999.90;;;;;;;19.13;100.00;94260.47;5027308;28;20274;-57
2023/07/30 00:44:55;;;;;;;1999.90;999.90;;;;;;;19.15;100.00;94260.72;5027580;28;20194;-58
2023/07/30 00:47:21;;;;;;;1999.90;999.90;;;;;;;19.15;100.00;94257.97;5027545;28;20201;-58
2023/07/30 00:49:48;;;;;;;1999.90;999.90;;;;;;;19.15;100.00;94252.44;5027466;28;20202;-58
2023/07/30 00:52:15;;;;;;;1999.90;999.90;;;;;;;19.15;100.00;94246.91;5027246;28;20199;-58
2023/07/30 00:54:41;;;;;;;1999.90;999.90;;;;;;;19.17;100.00;94261.78;5027251;28;20206;-58
2023/07/30 00:57:07;;;;;;;1999.90;999.90;;;;;;;19.18;100.00;94262.53;5026833;28;20191;-58
2023/07/30 00:59:33;;;;;;;1999.90;999.90;;;;;;;19.18;100.00;94265.31;5027820;28;20183;-58
2023/07/30 01:01:59;;;;;;;1999.90;999.90;;;;;;;19.17;100.00;94270.06;5027472;28;20214;-58
2023/07/30 01:04:24;;;;;;;1999.90;999.90;;;;;;;19.13;100.00;94274.31;5027647;28;20279;-58
2023/07/30 01:06:49;;;;;;;1999.90;999.90;;;;;;;19.15;100.00;94260.72;5027133;28;20230;-58
2023/07/30 01:09:15;;;;;;;1999.90;999.90;;;;;;;19.13;100.00;94249.41;5027451;28;20387;-57
2023/07/30 01:11:43;;;;;;;1999.90;999.90;;;;;;;19.11;100.00;94255.44;5027382;28;20198;-58
2023/07/30 01:14:09;;;;;;;1999.90;999.90;;;;;;;19.09;100.00;94254.41;5026892;28;20249;-58
2023/07/30 01:16:35;;;;;;;1999.90;999.90;;;;;;;19.06;100.00;94247.06;5027059;28;20203;-58
2023/07/30 01:19:04;;;;;;;1999.90;999.90;;;;;;;19.02;100.00;94254.81;5026871;28;20258;-59
2023/07/30 01:21:34;;;;;;;1999.90;999.90;;;;;;;19.01;100.00;94253.28;5026398;28;20203;-59
2023/07/30 01:23:59;;;;;;;1999.90;999.90;;;;;;;18.98;100.00;94248.72;5026792;28;20198;-58
2023/07/30 01:26:30;;;;;;;1999.90;999.90;;;;;;;18.97;100.00;94255.47;5027021;28;20203;-59
2023/07/30 01:29:00;;;;;;;1999.90;999.90;;;;;;;18.93;100.00;94255.72;5027138;28;20199;-59
2023/07/30 01:31:27;;;;;;;1999.90;999.90;;;;;;;18.91;100.00;94262.97;5026597;28;20226;-58
2023/07/30 01:33:55;;;;;;;1999.90;999.90;;;;;;;18.87;100.00;94259.66;5027107;28;20207;-58
2023/07/30 01:36:21;;;;;;;1999.90;999.90;;;;;;;18.87;100.00;94245.81;5026451;28;20226;-58
2023/07/30 01:38:49;;;;;;;1999.90;999.90;;;;;;;18.86;100.00;94241.50;5025727;28;20198;-59
2023/07/30 01:41:14;;;;;;;1999.90;999.90;;;;;;;18.84;100.00;94232.94;5026652;28;20275;-58
2023/07/30 01:43:39;;;;;;;1999.90;999.90;;;;;;;18.82;100.00;94229.91;5026244;28;20214;-58
2023/07/30 01:46:05;;;;;;;1999.90;999.90;;;;;;;18.81;100.00;94225.63;5026198;28;20195;-58
2023/07/30 01:48:30;;;;;;;1999.90;999.90;;;;;;;18.84;100.00;94227.41;5026237;28;20199;-58
2023/07/30 01:50:55;;;;;;;1999.90;999.90;;;;;;;18.84;100.00;94239.22;5026428;28;20259;-58
2023/07/30 01:53:21;;;;;;;1999.90;999.90;;;;;;;18.89;100.00;94251.63;5026205;28;20195;-58
2023/07/30 01:55:46;;;;;;;1999.90;999.90;;;;;;;18.94;100.00;94268.28;5026572;28;20202;-59
2023/07/30 01:58:13;;;;;;;1999.90;999.90;;;;;;;18.96;100.00;94290.72;5026546;28;20253;-58
2023/07/30 02:00:39;;;;;;;1999.90;999.90;;;;;;;18.94;100.00;94314.59;5026024;28;20203;-58
2023/07/30 02:03:04;;;;;;;1999.90;999.90;;;;;;;18.94;100.00;94331.94;5026261;28;20329;-58
2023/07/30 02:05:30;;;;;;;1999.90;999.90;;;;;;;18.95;100.00;94343.78;5026028;28;20210;-57
2023/07/30 02:07:55;;;;;;;1999.90;999.90;;;;;;;18.94;100.00;94353.34;5025916;28;20352;-59
2023/07/30 02:10:20;;;;;;;1999.90;999.90;;;;;;;18.91;100.00;94354.28;5025806;28;20218;-57
2023/07/30 02:12:46;;;;;;;1999.90;999.90;;;;;;;18.95;100.00;94374.22;5026023;28;20207;-58
2023/07/30 02:15:11;;;;;;;1999.90;999.90;;;;;;;18.95;100.00;94365.91;5025733;28;20195;-58
2023/07/30 02:17:36;;;;;;;1999.90;999.90;;;;;;;18.88;100.00;94358.03;5026214;28;20195;-58
2023/07/30 02:20:02;;;;;;;1999.90;999.90;;;;;;;18.91;100.00;94351.53;5025681;28;20257;-58
2023/07/30 02:22:28;;;;;;;1999.90;999.90;;;;;;;18.89;100.00;94345.69;5025948;28;20237;-58
2023/07/30 02:24:53;;;;;;;1999.90;999.90;;;;;;;18.92;100.00;94342.75;5025983;28;20195;-58
2023/07/30 02:27:18;;;;;;;1999.90;999.90;;;;;;;18.94;100.00;94342.25;5026096;28;20167;-58
2023/07/30 02:29:44;;;;;;;1999.90;999.90;;;;;;;18.98;100.00;94331.75;5026032;28;20203;-58
2023/07/30 02:32:09;;;;;;;1999.90;999.90;;;;;;;19.00;100.00;94334.78;5025627;28;20190;-58
2023/07/30 02:34:34;;;;;;;1999.90;999.90;;;;;;;19.00;100.00;94329.25;5025744;28;20237;-57
2023/07/30 02:37:00;;;;;;;1999.90;999.90;;;;;;;19.02;100.00;94332.31;5025445;28;20191;-58
2023/07/30 02:39:25;;;;;;;1999.90;999.90;;;;;;;19.05;100.00;94334.13;5025358;28;20199;-57
2023/07/30 02:41:51;;;;;;;1999.90;999.90;;;;;;;19.06;100.00;94343.94;5025162;28;20203;-58
2023/07/30 02:44:16;;;;;;;1999.90;999.90;;;;;;;19.07;100.00;94345.44;5025106;28;20202;-58
2023/07/30 02:46:41;;;;;;;1999.90;999.90;;;;;;;19.08;100.00;94341.41;5025208;28;20222;-58
2023/07/30 02:49:08;;;;;;;1999.90;999.90;;;;;;;19.09;100.00;94354.03;5024268;28;20206;-58
2023/07/30 02:51:33;;;;;;;1999.90;999.90;;;;;;;19.11;100.00;94373.69;5024973;28;20195;-58
2023/07/30 02:54:03;;;;;;;1999.90;999.90;;;;;;;19.16;100.00;94351.59;5025440;28;20237;-59
2023/07/30 02:56:28;;;;;;;1999.90;999.90;;;;;;;19.07;100.00;94312.22;5025521;28;20195;-59
2023/07/30 02:58:54;;;;;;;1999.90;999.90;;;;;;;19.03;100.00;94265.41;5025374;28;20207;-58
2023/07/30 03:01:19;;;;;;;1999.90;999.90;;;;;;;18.99;100.00;94233.63;5025288;28;20191;-58
2023/07/30 03:03:44;;;;;;;1999.90;999.90;;;;;;;18.95;100.00;94202.66;5025197;28;20287;-58
2023/07/30 03:06:10;;;;;;;1999.90;999.90;;;;;;;18.93;100.00;94202.34;5025284;28;20222;-58
2023/07/30 03:08:36;;;;;;;1999.90;999.90;;;;;;;18.91;100.00;94186.25;5024987;28;20195;-58
2023/07/30 03:11:01;;;;;;;1999.90;999.90;;;;;;;18.90;100.00;94164.59;5024759;28;20195;-58
2023/07/30 03:13:26;;;;;;;1999.90;999.90;;;;;;;18.88;100.00;94144.97;5024732;28;20203;-57
2023/07/30 03:15:52;;;;;;;1999.90;999.90;;;;;;;18.85;100.00;94119.03;5024768;28;20230;-57
2023/07/30 03:18:17;;;;;;;1999.90;999.90;;;;;;;18.84;100.00;94094.63;5024735;28;20195;-57
2023/07/30 03:20:43;;;;;;;1999.90;999.90;;;;;;;18.85;100.00;94085.06;5024590;28;20218;-57
2023/07/30 03:23:08;;;;;;;1999.90;999.90;;;;;;;18.88;100.00;94065.50;5024905;28;20210;-59
2023/07/30 03:25:33;;;;;;;1999.90;999.90;;;;;;;18.87;100.00;94052.16;5024293;28;20218;-58
2023/07/30 03:27:59;;;;;;;1999.90;999.90;;;;;;;18.87;100.00;94033.50;5024420;28;20236;-58
2023/07/30 03:30:24;;;;;;;1999.90;999.90;;;;;;;18.86;100.00;94014.63;5025017;28;20273;-58
2023/07/30 03:32:49;;;;;;;1999.90;999.90;;;;;;;18.83;100.00;93987.97;5025132;28;20186;-58
2023/07/30 03:35:15;;;;;;;1999.90;999.90;;;;;;;18.77;100.00;93956.72;5024308;28;20199;-58
2023/07/30 03:37:40;;;;;;;1999.90;999.90;;;;;;;18.71;100.00;93925.50;5024511;28;20195;-57
2023/07/30 03:40:06;;;;;;;1999.90;999.90;;;;;;;18.68;100.00;93904.34;5024273;28;20222;-58
2023/07/30 03:42:31;;;;;;;1999.90;999.90;;;;;;;18.62;100.00;93889.72;5024110;28;20218;-58
2023/07/30 03:44:57;;;;;;;1999.90;999.90;;;;;;;18.56;100.00;93861.25;5024218;28;20199;-59
2023/07/30 03:47:22;;;;;;;1999.90;999.90;;;;;;;18.50;100.00;93846.66;5024446;28;20191;-58
2023/07/30 03:49:47;;;;;;;1999.90;999.90;;;;;;;18.49;100.00;93831.28;5023974;28;20263;-58
2023/07/30 03:52:13;;;;;;;1999.90;999.90;;;;;;;18.45;100.00;93811.41;5024172;28;20191;-58
2023/07/30 03:54:38;;;;;;;1999.90;999.90;;;;;;;18.44;100.00;93790.56;5024145;28;20199;-58
2023/07/30 03:57:04;;;;;;;1999.90;999.90;;;;;;;18.40;100.00;93778.97;5024444;28;20195;-57
2023/07/30 03:59:29;;;;;;;1999.90;999.90;;;;;;;18.40;100.00;93765.16;5024024;28;20194;-58
2023/07/30 04:01:55;;;;;;;1999.90;999.90;;;;;;;18.40;100.00;93754.09;5024131;28;20218;-58
2023/07/30 04:04:20;;;;;;;1999.90;999.90;;;;;;;18.37;100.00;93747.53;5024405;28;20187;-58
2023/07/30 04:06:45;;;;;;;1999.90;999.90;;;;;;;18.36;100.00;93734.94;5024436;28;20199;-58
2023/07/30 04:09:11;;;;;;;1999.90;999.90;;;;;;;18.34;100.00;93720.09;5024006;28;20265;-59
2023/07/30 04:11:36;;;;;;;1999.90;999.90;;;;;;;18.33;100.00;93713.81;5023834;28;20232;-58
2023/07/30 04:14:01;;;;;;;1999.90;999.90;;;;;;;18.30;100.00;93708.50;5023802;28;20191;-58
2023/07/30 04:16:27;;;;;;;1999.90;999.90;;;;;;;18.28;100.00;93717.28;5023956;28;20230;-58
2023/07/30 04:18:52;;;;;;;1999.90;999.90;;;;;;;18.29;100.00;93701.47;5024054;28;20222;-57
2023/07/30 04:21:18;;;;;;;1999.90;999.90;;;;;;;18.41;100.00;93703.06;5023677;28;20214;-58
2023/07/30 04:23:43;;;;;;;1999.90;999.90;;;;;;;18.52;100.00;93708.66;5024277;28;20279;-58
2023/07/30 04:26:08;;;;;;;1999.90;999.90;;;;;;;18.57;100.00;93710.69;5023833;28;20190;-58
2023/07/30 04:28:34;;;;;;;1999.90;999.90;;;;;;;18.67;100.00;93726.59;5024071;28;20194;-58
2023/07/30 04:30:59;;;;;;;1999.90;999.90;;;;;;;18.75;100.00;93748.97;5023769;28;20203;-58
2023/07/30 04:33:26;;;;;;;1999.90;999.90;;;;;;;18.97;100.00;93760.16;5024009;28;20175;-58
2023/07/30 04:35:51;;;;;;;1999.90;999.90;;;;;;;19.21;100.00;93788.19;5024239;28;20199;-57
2023/07/30 04:38:17;;;;;;;1999.90;999.90;;;;;;;19.46;100.00;93846.19;5023720;28;20242;-57
2023/07/30 04:40:42;;;;;;;1999.90;999.90;;;;;;;19.66;100.00;93949.78;5023678;28;20230;-57
2023/07/30 04:43:08;;;;;;;1999.90;999.90;;;;;;;19.82;100.00;94096.72;5023548;28;20215;-58
2023/07/30 04:45:33;;;;;;;1999.90;999.90;;;;;;;20.02;100.00;94235.19;5023540;28;20209;-58
2023/07/30 04:47:59;;;;;;;1999.90;999.90;;;;;;;20.04;100.00;94381.63;5023585;28;20195;-58
2023/07/30 04:50:24;;;;;;;1999.90;999.90;;;;;;;20.07;100.00;94453.47;5023460;28;20203;-58
2023/07/30 04:52:49;;;;;;;1999.90;999.90;;;;;;;20.02;100.00;94540.13;5023682;28;20195;-58
2023/07/30 04:55:15;;;;;;;1999.90;999.90;;;;;;;20.46;100.00;94573.97;5023953;28;20245;-58
2023/07/30 04:57:40;;;;;;;1999.90;999.90;;;;;;;20.76;100.00;94658.59;5023635;28;20195;-58
2023/07/30 05:00:07;;;;;;;1999.90;999.90;;;;;;;20.82;100.00;94728.06;5023575;28;20204;-58
2023/07/30 05:02:32;;;;;;;1999.90;999.90;;;;;;;20.88;100.00;94768.53;5024007;28;20219;-58
2023/07/30 05:04:58;;;;;;;1999.90;999.90;;;;;;;21.26;100.00;94817.50;5023205;28;20275;-58
2023/07/30 05:07:23;;;;;;;1999.90;999.90;;;;;;;21.40;100.00;94853.56;5023889;28;20195;-58
2023/07/30 05:09:48;;;;;;;1999.90;999.90;;;;;;;21.25;100.00;94871.53;5023971;28;20203;-58
2023/07/30 05:12:14;;;;;;;1999.90;999.90;;;;;;;20.98;100.00;94874.72;5023347;28;20198;-57
2023/07/30 05:14:39;;;;;;;1999.90;999.90;;;;;;;20.96;100.00;94872.41;5027073;28;20203;-57
2023/07/30 05:17:05;;;;;;;1999.90;999.90;;;;;;;20.91;100.00;94861.19;5026985;28;20226;-58
2023/07/30 05:19:30;;;;;;;1999.90;999.90;;;;;;;21.12;100.00;94855.22;5027094;28;20210;-58
2023/07/30 05:21:55;;;;;;;1999.90;999.90;;;;;;;21.55;100.00;94887.63;5026696;28;20206;-58
2023/07/30 05:24:21;;;;;;;1999.90;999.90;;;;;;;22.50;100.00;94917.28;5026948;28;20222;-58
2023/07/30 05:26:46;;;;;;;1999.90;999.90;;;;;;;23.38;100.00;94976.53;5027020;28;20221;-58
2023/07/30 05:29:11;;;;;;;1999.90;999.90;;;;;;;23.92;100.00;95011.59;5026402;28;20257;-58
2023/07/30 05:31:37;;;;;;;1999.90;999.90;;;;;;;24.60;100.00;95037.31;5027200;28;20203;-62
2023/07/30 05:34:02;;;;;;;1999.90;999.90;;;;;;;25.05;100.00;95066.91;5026992;28;20242;-61
2023/07/30 05:36:27;;;;;;;1999.90;999.90;;;;;;;25.40;100.00;95075.63;5027397;28;20211;-60
2023/07/30 05:38:53;;;;;;;1999.90;999.90;;;;;;;26.12;100.00;95095.22;5026958;28;20183;-60
2023/07/30 05:41:18;;;;;;;1999.90;999.90;;;;;;;26.91;100.00;95101.59;5026706;28;20191;-60
2023/07/30 05:43:43;;;;;;;1999.90;999.90;;;;;;;27.13;100.00;95115.50;5026331;28;20207;-60
2023/07/30 05:46:09;;;;;;;1999.90;999.90;;;;;;;27.28;100.00;95112.41;5026387;28;20211;-60
2023/07/30 05:48:34;;;;;;;1999.90;999.90;;;;;;;27.11;100.00;95129.31;5026175;28;20202;-61
2023/07/30 05:50:59;;;;;;;1999.90;999.90;;;;;;;27.28;100.00;95121.56;5026349;28;20202;-61
2023/07/30 05:53:25;;;;;;;1999.90;999.90;;;;;;;27.71;100.00;95118.97;5026118;28;20222;-61
2023/07/30 05:55:50;;;;;;;1999.90;999.90;;;;;;;28.22;100.00;95118.81;5026380;28;20265;-61
2023/07/30 05:58:15;;;;;;;1999.90;999.90;;;;;;;28.33;100.00;95122.81;5026242;28;20238;-61
2023/07/30 06:00:41;;;;;;;1999.90;999.90;;;;;;;28.34;100.00;95120.22;5026193;28;20199;-60
2023/07/30 06:03:08;;;;;;;1999.90;999.90;;;;;;;28.77;100.00;95116.75;5025963;28;20213;-63
2023/07/30 06:05:39;;;;;;;1999.90;999.90;;;;;;;28.40;100.00;95122.25;5025980;28;20186;-61
2023/07/30 06:08:04;;;;;;;1999.90;999.90;;;;;;;28.96;100.00;95117.53;5026447;28;20246;-62
2023/07/30 06:10:29;;;;;;;1999.90;999.90;;;;;;;29.52;100.00;95123.94;5026480;28;20199;-62
2023/07/30 06:12:55;;;;;;;1999.90;999.90;;;;;;;29.99;100.00;95127.84;5026071;28;20206;-62
2023/07/30 06:15:20;;;;;;;1999.90;999.90;;;;;;;29.79;100.00;95129.19;5025902;28;20195;-65
2023/07/30 06:17:45;;;;;;;1999.90;999.90;;;;;;;29.41;100.00;95130.50;5025963;28;20199;-60
2023/07/30 06:20:11;;;;;;;1999.90;999.90;;;;;;;29.88;100.00;95122.41;5025617;28;20203;-60
2023/07/30 06:22:36;;;;;;;1999.90;999.90;;;;;;;30.28;100.00;95122.00;5025598;28;20219;-60
2023/07/30 06:25:02;;;;;;;1999.90;999.90;;;;;;;30.55;100.00;95119.97;5025955;28;20230;-60
2023/07/30 06:27:27;;;;;;;1999.90;999.90;;;;;;;30.34;100.00;95127.56;5025496;28;20199;-60
2023/07/30 06:29:53;;;;;;;1999.90;999.90;;;;;;;30.57;100.00;95125.84;5025700;28;20223;-61
2023/07/30 06:32:18;;;;;;;1999.90;999.90;;;;;;;30.65;100.00;95127.47;5025499;28;20231;-60
2023/07/30 06:34:44;;;;;;;1999.90;999.90;;;;;;;31.64;100.00;95121.84;5025389;28;20221;-61
2023/07/30 06:37:09;;;;;;;1999.90;999.90;;;;;;;31.03;100.00;95133.69;5025859;28;20179;-61
2023/07/30 06:39:34;;;;;;;1999.90;999.90;;;;;;;31.65;100.00;95131.84;5025791;28;20195;-61
2023/07/30 06:42:00;;;;;;;1999.90;999.90;;;;;;;30.07;100.00;95131.56;5025350;28;20214;-61
2023/07/30 06:44:25;;;;;;;1999.90;999.90;;;;;;;31.13;100.00;95134.75;5025600;28;20191;-61
2023/07/30 06:46:51;;;;;;;1999.90;999.90;;;;;;;31.94;100.00;95132.75;5025519;28;20191;-61
2023/07/30 06:49:16;;;;;;;1999.90;999.90;;;;;;;31.65;100.00;95137.50;5025317;28;20195;-61
2023/07/30 06:51:41;;;;;;;1999.90;999.90;;;;;;;31.87;100.00;95134.19;5025916;28;20201;-61
2023/07/30 06:54:07;;;;;;;1999.90;999.90;;;;;;;31.75;100.00;95135.72;5025256;28;20359;-61
2023/07/30 06:56:32;;;;;;;1999.90;999.90;;;;;;;32.54;100.00;95136.88;5025247;28;20191;-61
2023/07/30 06:58:57;;;;;;;1999.90;999.90;;;;;;;31.96;100.00;95128.03;5025102;28;20203;-61
2023/07/30 07:01:23;;;;;;;1999.90;999.90;;;;;;;32.31;100.00;95129.53;5025017;28;20195;-62
2023/07/30 07:03:48;;;;;;;1999.90;999.90;;;;;;;33.07;100.00;95126.69;5025446;28;20214;-61
2023/07/30 07:06:14;;;;;;;1999.90;999.90;;;;;;;32.48;100.00;95127.78;5025015;28;20198;-62
2023/07/30 07:08:39;;;;;;;1999.90;999.90;;;;;;;32.84;100.00;95125.78;5024858;28;20186;-63
2023/07/30 07:11:04;;;;;;;1999.90;999.90;;;;;;;33.81;91.03;95136.09;5025194;28;20246;-62
2023/07/30 07:13:30;;;;;;;1999.90;999.90;;;;;;;34.53;86.16;95130.94;5025332;28;20202;-65
2023/07/30 07:15:55;;;;;;;1999.90;999.90;;;;;;;33.91;87.89;95136.31;5024835;28;20202;-62
2023/07/30 07:18:20;;;;;;;1999.90;999.90;;;;;;;33.19;92.39;95139.22;5024851;28;20197;-62
2023/07/30 07:20:46;;;;;;;1999.90;999.90;;;;;;;32.96;97.50;95132.66;5024487;28;20209;-62
2023/07/30 07:23:11;;;;;;;1999.90;999.90;;;;;;;33.88;95.83;95134.63;5024821;28;20225;-62
2023/07/30 07:25:37;;;;;;;1999.90;999.90;;;;;;;34.19;90.82;95141.88;5024655;28;20199;-64
2023/07/30 07:28:03;;;;;;;1999.90;999.90;;;;;;;34.01;90.52;95137.31;5024351;28;20194;-61
2023/07/30 07:30:28;;;;;;;1999.90;999.90;;;;;;;34.18;84.28;95134.66;5024461;28;20234;-61
2023/07/30 07:32:55;;;;;;;1999.90;999.90;;;;;;;35.10;82.19;95146.22;5024598;28;20236;-62
2023/07/30 07:35:20;;;;;;;1999.90;999.90;;;;;;;34.79;81.56;95147.56;5023716;28;20190;-62
2023/07/30 07:37:45;;;;;;;1999.90;999.90;;;;;;;33.12;92.01;95139.94;5024142;28;20195;-64
2023/07/30 07:40:11;;;;;;;1999.90;999.90;;;;;;;32.58;100.00;95142.19;5024747;28;20183;-61
2023/07/30 07:42:38;;;;;;;1999.90;999.90;;;;;;;30.99;100.00;95138.91;5025018;28;20221;-62
2023/07/30 07:45:05;;;;;;;1999.90;999.90;;;;;;;30.36;100.00;95148.25;5024119;28;20199;-61
2023/07/30 07:47:30;;;;;;;1999.90;999.90;;;;;;;29.41;100.00;95138.97;5024130;28;20195;-62
2023/07/30 07:49:55;;;;;;;1999.90;999.90;;;;;;;29.34;100.00;95136.75;5024367;28;20195;-61
2023/07/30 07:52:21;;;;;;;1999.90;999.90;;;;;;;30.39;100.00;95137.97;5024227;28;20199;-61
2023/07/30 07:54:46;;;;;;;1999.90;999.90;;;;;;;32.09;100.00;95139.31;5024605;28;20191;-61
2023/07/30 07:57:11;;;;;;;1999.90;999.90;;;;;;;30.91;100.00;95149.31;5024044;28;20238;-61
2023/07/30 07:59:37;;;;;;;1999.90;999.90;;;;;;;29.30;100.00;95141.94;5023989;28;20191;-61
2023/07/30 08:02:02;;;;;;;1999.90;999.90;;;;;;;28.38;100.00;95144.47;5024350;28;20234;-62
2023/07/30 08:04:28;;;;;;;1999.90;999.90;;;;;;;28.25;100.00;95142.31;5024204;28;20206;-62
2023/07/30 08:06:53;;;;;;;1999.90;999.90;;;;;;;29.86;100.00;95141.91;5024122;28;20203;-62
2023/07/30 08:09:18;;;;;;;1999.90;999.90;;;;;;;31.64;100.00;95152.91;5023757;28;20262;-63
2023/07/30 08:11:44;;;;;;;1999.90;999.90;;;;;;;31.17;100.00;95146.47;5024239;28;20175;-68
2023/07/30 08:14:09;;;;;;;1999.90;999.90;;;;;;;30.52;100.00;95152.09;5023960;28;20267;-62
2023/07/30 08:16:34;;;;;;;1999.90;999.90;;;;;;;31.32;100.00;95146.72;5023989;28;20199;-60
2023/07/30 08:19:00;;;;;;;1999.90;999.90;;;;;;;31.14;100.00;95150.41;5023943;28;20266;-62
2023/07/30 08:21:25;;;;;;;1999.90;999.90;;;;;;;29.41;100.00;95146.63;5007484;28;20199;-60
2023/07/30 08:23:50;;;;;;;1999.90;999.90;;;;;;;29.29;100.00;95150.91;5024088;28;20211;-62
2023/07/30 08:26:16;;;;;;;1999.90;999.90;;;;;;;29.02;100.00;95146.41;5023810;28;20195;-64
2023/07/30 08:28:41;;;;;;;1999.90;999.90;;;;;;;31.07;100.00;95151.78;5023981;28;20233;-67
2023/07/30 08:31:07;;;;;;;1999.90;999.90;;;;;;;31.96;100.00;95145.00;5023988;28;20191;-62
2023/07/30 08:33:32;;;;;;;1999.90;999.90;;;;;;;31.18;99.80;95145.91;5023831;28;20237;-59
2023/07/30 08:35:59;;;;;;;1999.90;999.90;;;;;;;32.67;92.86;95133.94;5023674;28;20187;-62
2023/07/30 08:38:24;;;;;;;1999.90;999.90;;;;;;;31.84;95.18;95138.09;5023607;28;20195;-63
2023/07/30 08:40:50;;;;;;;1999.90;999.90;;;;;;;31.02;100.00;95134.97;5023373;28;20195;-57
2023/07/30 08:43:16;;;;;;;1999.90;999.90;;;;;;;29.78;100.00;95135.34;5024190;28;20209;-61
2023/07/30 08:45:41;;;;;;;1999.90;999.90;;;;;;;29.99;100.00;95131.44;5023780;28;20214;-59
2023/07/30 08:48:07;;;;;;;1999.90;999.90;;;;;;;30.73;100.00;95134.00;5025063;28;20202;-62
2023/07/30 08:50:33;;;;;;;1999.90;999.90;;;;;;;31.59;100.00;95131.22;5027726;28;20195;-58
2023/07/30 08:53:00;;;;;;;1999.90;999.90;;;;;;;32.29;94.93;95143.41;5027716;28;20270;-57
2023/07/30 08:55:28;;;;;;;1999.90;999.90;;;;;;;33.04;88.27;95133.47;5027279;28;20222;-59
2023/07/30 08:57:55;;;;;;;1999.90;999.90;;;;;;;33.50;85.99;95129.56;5027318;28;20187;-59
2023/07/30 09:00:24;;;;;;;1999.90;999.90;;;;;;;32.80;85.30;95131.03;5027304;28;20190;-60
2023/07/30 09:02:58;;;;;;;1999.90;999.90;;;;;;;33.63;82.33;95120.94;5027093;28;20203;-61
2023/07/30 09:05:23;;;;;;;1999.90;999.90;;;;;;;34.22;74.95;95123.72;5027319;28;20194;-60
2023/07/30 09:07:49;;;;;;;1999.90;999.90;;;;;;;35.03;74.42;95121.44;5027436;28;20253;-60
2023/07/30 09:10:15;;;;;;;1999.90;999.90;;;;;;;35.45;68.02;95108.25;5027483;28;20186;-61
2023/07/30 09:12:41;;;;;;;1999.90;999.90;;;;;;;34.13;73.18;95113.69;5027502;28;20205;-61
2023/07/30 09:15:07;;;;;;;1999.90;999.90;;;;;;;32.13;85.28;95108.63;5027009;28;20195;-60
2023/07/30 09:17:33;;;;;;;1999.90;999.90;;;;;;;32.47;85.25;95103.63;5026738;28;20195;-60
2023/07/30 09:20:00;;;;;;;1999.90;999.90;;;;;;;33.26;80.50;95101.69;5026964;28;20226;-60
2023/07/30 09:22:33;;;;;;;1999.90;999.90;;;;;;;34.04;76.21;95102.16;5026499;28;20211;-61
2023/07/30 09:25:01;;;;;;;1999.90;999.90;;;;;;;34.58;67.50;95099.53;5027002;28;20190;-61
2023/07/30 09:27:26;;;;;;;1999.90;999.90;;;;;;;34.80;64.82;95098.72;5026775;28;20195;-61
2023/07/30 09:29:56;;;;;;;1999.90;999.90;;;;;;;33.92;68.18;95101.75;5026793;28;20266;-61
2023/07/30 09:32:29;;;;;;;1999.90;999.90;;;;;;;33.15;74.06;95096.34;5026769;28;20266;-61
2023/07/30 09:34:55;;;;;;;1999.90;999.90;;;;;;;32.71;79.97;95089.09;5026610;28;20183;-62
2023/07/30 09:37:20;;;;;;;1999.90;999.90;;;;;;;33.24;76.58;95092.22;5026954;28;20206;-61
2023/07/30 09:39:48;;;;;;;1999.90;999.90;;;;;;;33.33;75.11;95098.16;5027001;28;20198;-61
2023/07/30 09:42:13;;;;;;;1999.90;999.90;;;;;;;33.57;74.63;95097.66;5026286;28;20278;-60
2023/07/30 09:44:39;;;;;;;1999.90;999.90;;;;;;;33.88;74.38;95086.41;5026842;28;20194;-61
2023/07/30 09:47:09;;;;;;;1999.90;999.90;;;;;;;33.82;70.11;95086.56;5026636;28;20222;-61
2023/07/30 09:49:36;;;;;;;1999.90;999.90;;;;;;;34.18;66.46;95089.28;5026293;28;20263;-63
2023/07/30 09:52:03;;;;;;;1999.90;999.90;;;;;;;34.10;68.16;95088.50;5026315;28;20223;-61
2023/07/30 09:54:29;;;;;;;1999.90;999.90;;;;;;;34.24;64.48;95087.78;5026243;28;20187;-60
2023/07/30 09:56:54;;;;;;;1999.90;999.90;;;;;;;33.01;74.17;95092.13;5026245;28;20206;-61
2023/07/30 09:59:20;;;;;;;1999.90;999.90;;;;;;;33.59;70.20;95083.69;5025733;28;20194;-60
2023/07/30 10:01:49;;;;;;;1999.90;999.90;;;;;;;34.50;66.27;95093.09;5025884;28;20282;-61
2023/07/30 10:04:18;;;;;;;1999.90;999.90;;;;;;;34.42;64.97;95092.34;5026411;28;20179;-60
2023/07/30 10:06:49;;;;;;;1999.90;999.90;;;;;;;34.27;68.07;95085.88;5026278;28;20195;-61
2023/07/30 10:09:19;;;;;;;1999.90;999.90;;;;;;;34.42;69.27;95091.59;5025982;28;20210;-60
2023/07/30 10:11:46;;;;;;;1999.90;999.90;;;;;;;33.11;77.08;95101.59;5025568;28;20199;-61
2023/07/30 10:14:12;;;;;;;1999.90;999.90;;;;;;;31.89;82.40;95100.47;5025981;28;20199;-61
2023/07/30 10:16:38;;;;;;;1999.90;999.90;;;;;;;31.07;89.66;95097.44;5026062;28;20202;-61
2023/07/30 10:19:03;;;;;;;1999.90;999.90;;;;;;;29.93;98.45;95101.84;5025553;28;20191;-63
2023/07/30 10:21:32;;;;;;;1999.90;999.90;;;;;;;29.13;100.00;95120.94;5025687;28;20203;-61
2023/07/30 10:24:04;;;;;;;1999.90;999.90;;;;;;;27.76;100.00;95116.13;5025732;28;20254;-61
2023/07/30 10:26:36;;;;;;;1999.90;999.90;;;;;;;26.63;100.00;95112.19;5025443;28;20209;-61
2023/07/30 10:29:11;;;;;;;1999.90;999.90;;;;;;;26.34;100.00;95114.78;5025894;28;20218;-61
2023/07/30 10:31:55;;;;;;;1999.90;999.90;;;;;;;26.00;100.00;95122.47;5026014;28;20209;-60
2023/07/30 10:34:20;;;;;;;1999.90;999.90;;;;;;;26.44;100.00;95127.97;5025624;28;20198;-60
2023/07/30 10:36:48;;;;;;;1999.90;999.90;;;;;;;27.46;100.00;95114.59;5025240;28;20203;-61
2023/07/30 10:39:19;;;;;;;1999.90;999.90;;;;;;;28.87;100.00;95117.91;5025359;28;20261;-58
2023/07/30 10:41:53;;;;;;;1999.90;999.90;;;;;;;29.80;100.00;95115.88;5025481;28;20227;-60